createdAt,value
2018-07-05T00:02:28.200Z,17.25
2018-07-05T00:07:49.601Z,18.00
2018-07-05T00:13:10.986Z,16.00
2018-07-05T00:18:32.389Z,17.25
2018-07-05T00:23:53.681Z,17.00
2018-07-05T00:29:15.194Z,16.25
2018-07-05T00:34:36.719Z,17.50
2018-07-05T00:39:52.327Z,16.25
2018-07-05T00:45:08.080Z,19.00
2018-07-05T00:50:29.415Z,18.00
2018-07-05T00:55:51.168Z,18.60
2018-07-05T01:01:12.571Z,16.50
2018-07-05T01:06:34.033Z,16.75
2018-07-05T01:11:55.325Z,15.75
2018-07-05T01:17:16.917Z,16.75
2018-07-05T01:22:38.205Z,16.75
2018-07-05T01:27:59.778Z,18.25
2018-07-05T01:33:21.346Z,16.00
2018-07-05T01:38:36.676Z,15.25
2018-07-05T01:43:58.053Z,18.00
2018-07-05T01:49:19.665Z,16.20
2018-07-05T01:54:40.987Z,15.25
2018-07-05T02:00:02.347Z,16.50
2018-07-05T02:05:23.647Z,16.50
2018-07-05T02:10:45.274Z,14.20
2018-07-05T02:16:06.762Z,16.50
2018-07-05T02:21:28.261Z,17.00
2018-07-05T02:26:49.627Z,15.00
2018-07-05T02:32:11.106Z,16.00
2018-07-05T02:37:31.844Z,13.25
2018-07-05T02:42:53.338Z,15.00
2018-07-05T02:48:08.814Z,19.00
2018-07-05T02:53:30.111Z,16.50
2018-07-05T02:58:51.485Z,23.75
2018-07-05T03:04:13.238Z,15.50
2018-07-05T03:09:34.601Z,17.00
2018-07-05T03:14:56.117Z,15.75
2018-07-05T03:20:17.453Z,17.75
2018-07-05T03:25:39.215Z,17.75
2018-07-05T03:31:00.446Z,17.50
2018-07-05T03:36:15.788Z,16.00
2018-07-05T03:41:37.261Z,16.20
2018-07-05T03:46:58.549Z,16.50
2018-07-05T03:52:19.994Z,14.75
2018-07-05T03:57:41.296Z,16.75
2018-07-05T04:03:02.814Z,17.25
2018-07-05T04:08:24.280Z,16.20
2018-07-05T04:13:45.653Z,19.25
2018-07-05T04:19:07.317Z,16.50
2018-07-05T04:24:22.725Z,18.00
2018-07-05T04:29:44.172Z,17.20
2018-07-05T04:35:05.687Z,18.00
2018-07-05T04:40:27.249Z,18.00
2018-07-05T04:45:48.732Z,20.50
2018-07-05T04:51:10.165Z,17.25
2018-07-05T04:56:31.717Z,20.00
2018-07-05T05:01:52.942Z,19.50
2018-07-05T05:07:14.254Z,21.40
2018-07-05T05:12:35.821Z,21.75
2018-07-05T05:17:57.098Z,21.50
2018-07-05T05:23:18.452Z,18.25
2018-07-05T05:28:39.921Z,20.00
2018-07-05T05:34:01.748Z,19.00
2018-07-05T05:39:22.971Z,19.00
2018-07-05T05:44:44.274Z,18.40
2018-07-05T05:50:05.726Z,21.00
2018-07-05T05:55:27.225Z,23.75
2018-07-05T06:00:48.443Z,21.00
2018-07-05T06:06:10.040Z,20.00
2018-07-05T06:11:31.847Z,21.25
2018-07-05T06:16:53.636Z,23.00
2018-07-05T06:22:15.178Z,23.00
2018-07-05T06:27:36.544Z,21.75
2018-07-05T06:32:58.078Z,22.50
2018-07-05T06:38:19.549Z,24.40
2018-07-05T06:43:41.051Z,22.50
2018-07-05T06:48:56.297Z,23.00
2018-07-05T06:54:18.194Z,25.50
2018-07-05T06:59:39.928Z,21.75
2018-07-05T07:05:01.457Z,22.50
2018-07-05T07:10:16.800Z,24.75
2018-07-05T07:15:38.042Z,23.25
2018-07-05T07:20:59.450Z,24.75
2018-07-05T07:26:20.918Z,26.50
2018-07-05T07:31:42.399Z,22.00
2018-07-05T07:37:04.103Z,23.40
2018-07-05T07:42:06.948Z,22.75
2018-07-05T07:47:09.798Z,22.20
2018-07-05T07:52:12.665Z,25.75
2018-07-05T07:57:15.517Z,24.20
2018-07-05T08:02:18.398Z,21.50
2018-07-05T08:07:21.236Z,22.00
2018-07-05T08:12:24.218Z,22.25
2018-07-05T08:17:27.353Z,22.25
2018-07-05T08:22:30.232Z,22.00
2018-07-05T08:27:33.073Z,24.00
2018-07-05T08:32:35.903Z,23.25
2018-07-05T08:37:38.766Z,21.50
2018-07-05T08:42:41.613Z,21.00
2018-07-05T08:47:44.603Z,21.25
2018-07-05T08:52:47.451Z,23.75
2018-07-05T08:57:50.541Z,24.50
2018-07-05T09:02:53.373Z,20.50
2018-07-05T09:07:56.236Z,23.20
2018-07-05T09:12:59.106Z,22.00
2018-07-05T09:18:01.966Z,22.25
2018-07-05T09:23:04.861Z,22.75
2018-07-05T09:28:07.645Z,21.25
2018-07-05T09:33:10.639Z,21.75
2018-07-05T09:38:13.494Z,25.00
2018-07-05T09:43:16.340Z,20.25
2018-07-05T09:48:19.178Z,20.00
2018-07-05T09:53:22.045Z,22.75
2018-07-05T09:58:25.193Z,21.25
2018-07-05T10:03:28.106Z,24.00
2018-07-05T10:08:30.900Z,20.75
2018-07-05T10:13:34.121Z,21.50
2018-07-05T10:18:36.813Z,21.00
2018-07-05T10:23:39.652Z,20.50
2018-07-05T10:29:01.096Z,21.25
2018-07-05T10:34:03.938Z,20.25
2018-07-05T10:39:06.975Z,20.50
2018-07-05T10:44:28.727Z,23.75
2018-07-05T10:49:50.280Z,24.00
2018-07-05T10:55:11.581Z,25.50
2018-07-05T11:00:32.941Z,24.75
2018-07-05T11:05:54.437Z,25.80
2018-07-05T11:11:15.685Z,22.50
2018-07-05T11:16:37.244Z,26.00
2018-07-05T11:21:58.657Z,24.00
2018-07-05T11:27:19.853Z,24.50
2018-07-05T11:32:41.318Z,23.75
2018-07-05T11:38:02.889Z,21.50
2018-07-05T11:43:24.259Z,23.20
2018-07-05T11:48:45.662Z,24.00
2018-07-05T11:54:07.192Z,24.25
2018-07-05T11:59:28.656Z,24.25
2018-07-05T12:04:50.769Z,23.75
2018-07-05T12:10:12.146Z,24.75
2018-07-05T12:15:33.556Z,26.00
2018-07-05T12:20:55.006Z,27.00
2018-07-05T12:26:16.445Z,23.80
2018-07-05T12:31:37.945Z,23.50
2018-07-05T12:36:59.310Z,21.25
2018-07-05T12:42:20.781Z,22.50
2018-07-05T12:47:42.292Z,21.00
2018-07-05T12:53:04.113Z,21.75
2018-07-05T12:58:25.443Z,21.75
2018-07-05T13:03:47.057Z,20.50
2018-07-05T13:09:09.277Z,21.00
2018-07-05T13:14:30.643Z,22.00
2018-07-05T13:19:52.331Z,24.50
2018-07-05T13:25:13.787Z,21.25
2018-07-05T13:30:35.062Z,22.00
2018-07-05T13:35:56.649Z,23.25
2018-07-05T13:41:18.029Z,23.40
2018-07-05T13:46:39.505Z,20.50
2018-07-05T13:52:00.973Z,24.00
2018-07-05T13:57:22.465Z,21.75
2018-07-05T14:02:43.824Z,22.00
2018-07-05T14:08:05.242Z,20.75
2018-07-05T14:13:26.862Z,21.25
2018-07-05T14:18:48.175Z,22.50
2018-07-05T14:24:09.534Z,23.00
2018-07-05T14:29:31.104Z,20.00
2018-07-05T14:34:52.553Z,19.50
2018-07-05T14:40:14.022Z,21.50
2018-07-05T14:45:35.499Z,23.40
2018-07-05T14:50:51.011Z,22.50
2018-07-05T14:56:12.283Z,21.25
2018-07-05T15:01:34.036Z,22.50
2018-07-05T15:06:55.508Z,22.40
2018-07-05T15:12:17.021Z,21.00
2018-07-05T15:17:38.431Z,24.00
2018-07-05T15:22:59.922Z,23.00
2018-07-05T15:28:15.428Z,21.25
2018-07-05T15:33:36.778Z,21.25
2018-07-05T15:38:58.142Z,23.00
2018-07-05T15:44:19.913Z,21.00
2018-07-05T15:49:41.524Z,22.75
2018-07-05T15:55:03.169Z,23.50
2018-07-05T16:00:25.455Z,21.50
2018-07-05T16:05:47.004Z,22.25
2018-07-05T16:11:08.618Z,21.40
2018-07-05T16:16:29.941Z,20.20
2018-07-05T16:21:45.524Z,20.75
2018-07-05T16:27:07.004Z,28.75
2018-07-05T16:32:28.373Z,50.60
2018-07-05T16:37:49.978Z,50.00
2018-07-05T16:43:05.553Z,49.75
2018-07-05T16:48:28.036Z,46.00
2018-07-05T16:53:49.469Z,47.80
2018-07-05T16:59:04.732Z,46.00
2018-07-05T17:04:26.045Z,45.00
2018-07-05T17:09:47.361Z,40.75
2018-07-05T17:15:08.920Z,41.50
2018-07-05T17:20:30.321Z,39.00
2018-07-05T17:25:51.621Z,37.75
2018-07-05T17:31:13.124Z,35.75
2018-07-05T17:36:34.796Z,35.00
2018-07-05T17:41:56.245Z,34.00
2018-07-05T17:47:17.687Z,33.25
2018-07-05T17:52:39.325Z,32.25
2018-07-05T17:58:00.704Z,34.00
2018-07-05T18:03:22.450Z,31.75
2018-07-05T18:08:43.714Z,30.75
2018-07-05T18:13:59.151Z,31.75
2018-07-05T18:19:20.441Z,30.75
2018-07-05T18:24:41.813Z,22.25
2018-07-05T18:30:03.402Z,19.75
2018-07-05T18:35:25.365Z,15.40
2018-07-05T18:40:41.041Z,17.50
2018-07-05T18:46:02.518Z,22.00
2018-07-05T18:51:23.789Z,23.75
2018-07-05T18:56:46.257Z,19.00
2018-07-05T19:02:07.846Z,16.40
2018-07-05T19:07:29.454Z,21.60
2018-07-05T19:12:50.892Z,19.25
2018-07-05T19:18:12.350Z,18.00
2018-07-05T19:23:33.912Z,16.25
2018-07-05T19:28:55.525Z,15.00
2018-07-05T19:34:17.180Z,19.25
2018-07-05T19:39:32.464Z,22.00
2018-07-05T19:44:53.980Z,19.75
2018-07-05T19:50:15.393Z,19.25
2018-07-05T19:55:36.842Z,20.00
2018-07-05T20:00:58.211Z,21.00
2018-07-05T20:06:19.665Z,19.25
2018-07-05T20:11:46.307Z,15.00
2018-07-05T20:17:07.835Z,14.75
2018-07-05T20:22:29.379Z,14.80
2018-07-05T20:27:51.113Z,15.50
2018-07-05T20:33:06.439Z,15.25
2018-07-05T20:38:27.789Z,14.00
2018-07-05T20:43:49.465Z,15.60
2018-07-05T20:49:11.119Z,13.00
2018-07-05T20:54:26.670Z,14.00
2018-07-05T20:59:48.314Z,14.50
2018-07-05T21:05:09.617Z,12.00
2018-07-05T21:10:31.088Z,15.75
2018-07-05T21:15:52.442Z,11.50
2018-07-05T21:21:08.058Z,10.75
2018-07-05T21:26:23.822Z,12.75
2018-07-05T21:31:45.146Z,10.00
2018-07-05T21:37:06.599Z,9.50
2018-07-05T21:42:27.968Z,12.00
2018-07-05T21:47:49.519Z,11.40
2018-07-05T21:53:10.878Z,12.00
2018-07-05T21:58:32.651Z,10.25
2018-07-05T22:03:53.838Z,11.00
2018-07-05T22:09:15.197Z,11.25
2018-07-05T22:14:37.199Z,10.50
2018-07-05T22:20:03.949Z,10.50
2018-07-05T22:25:30.590Z,11.25
2018-07-05T22:30:57.360Z,9.60
2018-07-05T22:36:18.693Z,12.50
2018-07-05T22:41:40.280Z,12.00
2018-07-05T22:47:01.922Z,14.25
2018-07-05T22:52:23.338Z,12.75
2018-07-05T22:57:44.554Z,11.75
2018-07-05T23:03:00.056Z,13.00
2018-07-05T23:08:21.460Z,15.50
2018-07-05T23:13:36.870Z,14.00
2018-07-05T23:18:58.404Z,11.20
2018-07-05T23:24:14.197Z,13.00
2018-07-05T23:29:35.522Z,12.00
2018-07-05T23:34:57.092Z,12.50
2018-07-05T23:40:12.610Z,15.00
2018-07-05T23:45:34.292Z,14.25
2018-07-05T23:50:56.154Z,13.00
2018-07-05T23:56:11.553Z,13.50
